createdAt,value
2022-09-01T00:00:49.164Z,15.50
2022-09-01T00:03:17.877Z,15.60
2022-09-01T00:08:18.501Z,15.50
2022-09-01T00:13:17.722Z,15.60
2022-09-01T00:18:15.737Z,14.50
2022-09-01T00:23:12.375Z,15.50
2022-09-01T00:25:40.607Z,15.40
2022-09-01T00:30:38.527Z,14.80
2022-09-01T00:38:05.655Z,14.30
2022-09-01T00:45:31.192Z,15.00
2022-09-01T00:48:00.729Z,14.20
2022-09-01T00:52:58.835Z,14.70
2022-09-01T00:55:30.235Z,14.50
2022-09-01T00:58:02.736Z,14.70
2022-09-01T01:00:32.490Z,14.70
2022-09-01T01:03:02.088Z,14.00
2022-09-01T01:05:34.861Z,14.80
2022-09-01T01:08:08.159Z,14.60
2022-09-01T01:10:40.428Z,15.10
2022-09-01T01:13:11.157Z,14.10
2022-09-01T01:18:14.643Z,14.50
2022-09-01T01:21:05.195Z,14.50
2022-09-01T01:23:40.246Z,14.40
2022-09-01T01:26:11.518Z,14.10
2022-09-01T01:28:43.114Z,14.30
2022-09-01T01:31:13.559Z,14.20
2022-09-01T01:33:44.637Z,14.50
2022-09-01T01:36:16.442Z,14.30
2022-09-01T01:38:47.961Z,14.20
2022-09-01T01:41:19.922Z,14.40
2022-09-01T01:43:51.132Z,14.20
2022-09-01T01:46:20.725Z,14.60
2022-09-01T01:51:25.034Z,14.40
2022-09-01T01:53:53.672Z,14.10
2022-09-01T01:56:25.672Z,13.80
2022-09-01T01:58:55.454Z,14.30
2022-09-01T02:01:25.254Z,14.30
2022-09-01T02:03:54.868Z,13.40
2022-09-01T02:06:25.239Z,14.20
2022-09-01T02:08:56.726Z,13.60
2022-09-01T02:11:27.419Z,13.80
2022-09-01T02:16:25.350Z,13.50
2022-09-01T02:21:24.582Z,13.60
2022-09-01T02:24:01.159Z,13.50
2022-09-01T02:26:32.875Z,13.20
2022-09-01T02:29:04.654Z,14.10
2022-09-01T02:31:35.681Z,13.40
2022-09-01T02:41:34.668Z,13.10
2022-09-01T02:44:03.773Z,14.00
2022-09-01T02:46:32.211Z,13.20
2022-09-01T02:51:34.533Z,13.50
2022-09-01T02:54:03.018Z,13.80
2022-09-01T02:56:32.615Z,13.50
2022-09-01T02:59:01.773Z,14.10
2022-09-01T03:01:32.491Z,13.50
2022-09-01T03:04:02.865Z,13.30
2022-09-01T03:06:34.437Z,13.40
2022-09-01T03:09:04.624Z,13.50
2022-09-01T03:11:35.858Z,13.80
2022-09-01T03:14:05.109Z,13.50
2022-09-01T03:16:33.829Z,13.50
2022-09-01T03:19:03.988Z,13.80
2022-09-01T03:21:32.992Z,14.30
2022-09-01T03:26:33.857Z,13.10
2022-09-01T03:31:31.821Z,13.10
2022-09-01T03:34:00.745Z,14.30
2022-09-01T03:36:30.136Z,13.40
2022-09-01T03:38:58.902Z,13.60
2022-09-01T03:41:30.881Z,13.50
2022-09-01T03:44:01.017Z,13.40
2022-09-01T03:46:36.454Z,13.00
2022-09-01T03:51:39.041Z,13.10
2022-09-01T03:56:36.184Z,13.70
2022-09-01T03:59:05.753Z,13.60
2022-09-01T04:04:06.684Z,12.90
2022-09-01T04:06:34.767Z,12.90
2022-09-01T04:11:32.458Z,13.20
2022-09-01T04:14:01.079Z,13.10
2022-09-01T04:16:50.741Z,12.90
2022-09-01T04:19:26.481Z,13.40
2022-09-01T04:21:56.768Z,13.10
2022-09-01T04:24:28.443Z,12.90
2022-09-01T04:26:58.745Z,13.10
2022-09-01T04:29:28.341Z,13.10
2022-09-01T04:32:02.100Z,12.80
2022-09-01T04:34:37.197Z,13.00
2022-09-01T04:37:09.640Z,13.20
2022-09-01T04:42:09.179Z,12.90
2022-09-01T04:44:37.993Z,12.70
2022-09-01T04:47:16.675Z,12.30
2022-09-01T04:49:45.730Z,12.40
2022-09-01T04:57:13.472Z,12.70
2022-09-01T05:02:11.873Z,12.40
2022-09-01T05:04:46.315Z,12.90
2022-09-01T05:12:15.720Z,12.90
2022-09-01T05:14:48.573Z,12.50
2022-09-01T05:17:18.742Z,12.50
2022-09-01T05:19:51.146Z,12.50
2022-09-01T05:22:23.961Z,12.90
2022-09-01T05:27:24.011Z,12.20
2022-09-01T05:32:26.052Z,13.00
2022-09-01T05:34:54.438Z,12.90
2022-09-01T05:37:23.020Z,12.90
2022-09-01T05:42:21.827Z,12.30
2022-09-01T05:44:52.675Z,12.20
2022-09-01T05:47:23.570Z,12.60
2022-09-01T05:55:00.023Z,12.60
2022-09-01T05:57:34.636Z,12.70
2022-09-01T06:00:10.922Z,12.70
2022-09-01T06:02:41.192Z,13.10
2022-09-01T06:05:10.990Z,13.30
2022-09-01T06:07:41.037Z,13.20
2022-09-01T06:10:10.633Z,13.40
2022-09-01T06:15:16.061Z,13.50
2022-09-01T06:17:46.353Z,13.60
2022-09-01T06:20:18.239Z,13.70
2022-09-01T06:22:47.767Z,14.40
2022-09-01T06:25:18.675Z,13.20
2022-09-01T06:27:48.199Z,14.10
2022-09-01T06:30:23.879Z,14.10
2022-09-01T06:32:54.751Z,14.10
2022-09-01T06:35:25.290Z,14.40
2022-09-01T06:37:53.800Z,14.70
2022-09-01T06:42:52.490Z,15.30
2022-09-01T06:45:22.880Z,15.00
2022-09-01T06:47:57.670Z,15.40
2022-09-01T06:56:09.028Z,15.40
2022-09-01T06:58:38.284Z,15.40
2022-09-01T07:01:15.996Z,15.60
2022-09-01T07:03:45.235Z,15.80
2022-09-01T07:09:20.040Z,15.70
2022-09-01T07:16:32.567Z,15.70
2022-09-01T07:19:56.019Z,15.90
2022-09-01T07:25:13.676Z,16.00
2022-09-01T07:27:50.470Z,17.10
2022-09-01T07:30:20.840Z,17.40
2022-09-01T07:35:23.900Z,16.90
2022-09-01T07:38:47.495Z,17.40
2022-09-01T07:43:34.140Z,17.50
2022-09-01T07:49:29.239Z,17.20
2022-09-01T07:51:44.119Z,17.70
2022-09-01T07:54:13.988Z,18.50
2022-09-01T08:01:43.940Z,18.20
2022-09-01T08:06:40.909Z,18.00
2022-09-01T08:09:11.610Z,17.90
2022-09-01T08:14:33.707Z,17.90
2022-09-01T08:17:16.957Z,17.90
2022-09-01T08:19:47.042Z,19.10
2022-09-01T08:22:15.621Z,18.60
2022-09-01T08:24:43.978Z,18.60
2022-09-01T08:27:13.782Z,18.80
2022-09-01T08:32:11.953Z,18.60
2022-09-01T08:34:40.369Z,19.40
2022-09-01T08:37:08.509Z,19.50
2022-09-01T08:39:36.575Z,19.50
2022-09-01T08:42:16.007Z,20.20
2022-09-01T08:44:57.535Z,21.20
2022-09-01T08:47:35.447Z,22.30
2022-09-01T08:50:13.112Z,22.80
2022-09-01T08:52:46.150Z,23.30
2022-09-01T08:55:22.046Z,23.60
2022-09-01T08:57:54.787Z,23.90
2022-09-01T09:00:30.286Z,23.90
2022-09-01T09:03:12.279Z,24.20
2022-09-01T09:05:57.494Z,24.20
2022-09-01T09:09:03.627Z,23.80
2022-09-01T09:11:50.789Z,23.90
2022-09-01T09:14:29.807Z,23.60
2022-09-01T09:16:59.307Z,23.80
2022-09-01T09:19:30.369Z,23.90
2022-09-01T09:22:01.036Z,23.80
2022-09-01T09:24:47.227Z,23.70
2022-09-01T09:27:20.729Z,23.60
2022-09-01T09:29:52.358Z,23.70
2022-09-01T09:32:24.089Z,23.90
2022-09-01T09:35:20.412Z,24.20
2022-09-01T09:37:48.486Z,24.40
2022-09-01T09:40:19.797Z,24.70
2022-09-01T09:43:05.240Z,25.00
2022-09-01T09:45:35.816Z,25.10
2022-09-01T09:48:10.764Z,25.10
2022-09-01T09:50:40.948Z,24.90
2022-09-01T09:53:19.551Z,24.80
2022-09-01T09:55:57.686Z,24.80
2022-09-01T09:58:29.071Z,24.80
2022-09-01T10:01:17.729Z,24.70
2022-09-01T10:03:50.508Z,24.60
2022-09-01T10:06:33.027Z,24.60
2022-09-01T10:09:02.677Z,24.60
2022-09-01T10:11:41.487Z,24.80
2022-09-01T10:14:22.925Z,24.40
2022-09-01T10:17:07.217Z,24.30
2022-09-01T10:19:40.325Z,24.30
2022-09-01T10:22:10.545Z,24.30
2022-09-01T10:24:44.699Z,24.40
2022-09-01T10:27:20.321Z,24.40
2022-09-01T10:30:12.230Z,24.20
2022-09-01T10:32:50.837Z,24.10
2022-09-01T10:35:27.691Z,23.70
2022-09-01T10:37:59.138Z,23.50
2022-09-01T10:40:50.028Z,23.30
2022-09-01T10:43:43.179Z,23.40
2022-09-01T10:46:50.179Z,23.90
2022-09-01T10:50:02.337Z,22.30
2022-09-01T10:53:00.010Z,24.00
2022-09-01T10:55:33.429Z,23.90
2022-09-01T11:13:25.732Z,23.50
2022-09-01T11:15:55.377Z,23.40
2022-09-01T11:18:31.374Z,23.40
2022-09-01T11:21:16.110Z,23.80
2022-09-01T11:23:46.184Z,24.20
2022-09-01T11:26:43.919Z,24.50
2022-09-01T11:29:52.912Z,24.40
2022-09-01T11:32:26.472Z,24.40
2022-09-01T11:34:57.253Z,24.50
2022-09-01T11:37:27.788Z,24.50
2022-09-01T11:39:58.579Z,24.70
2022-09-01T11:42:30.863Z,24.50
2022-09-01T11:45:04.524Z,24.10
2022-09-01T11:47:39.627Z,23.80
2022-09-01T11:50:18.144Z,23.90
2022-09-01T11:52:55.417Z,24.10
2022-09-01T11:55:31.835Z,24.30
2022-09-01T11:58:00.132Z,24.50
2022-09-01T12:00:32.475Z,24.60
2022-09-01T12:03:01.180Z,24.80
2022-09-01T12:05:33.289Z,24.70
2022-09-01T12:08:04.459Z,24.60
2022-09-01T12:10:35.505Z,24.50
2022-09-01T12:13:06.885Z,24.70
2022-09-01T12:16:07.149Z,24.70
2022-09-01T12:18:32.512Z,25.00
2022-09-01T12:21:02.249Z,25.20
2022-09-01T12:23:33.056Z,25.10
2022-09-01T12:26:03.928Z,24.90
2022-09-01T12:28:34.370Z,24.80
2022-09-01T12:31:07.397Z,24.90
2022-09-01T12:33:36.739Z,24.90
2022-09-01T12:36:25.708Z,24.90
2022-09-01T12:38:55.013Z,24.90
2022-09-01T12:41:29.034Z,25.00
2022-09-01T12:43:57.412Z,25.00
2022-09-01T12:46:46.981Z,25.10
2022-09-01T12:49:19.088Z,25.10
2022-09-01T12:51:48.784Z,25.00
2022-09-01T12:54:17.349Z,25.20
2022-09-01T12:56:51.215Z,25.30
2022-09-01T12:59:36.297Z,25.60
2022-09-01T13:02:30.595Z,25.60
2022-09-01T13:05:20.709Z,25.60
2022-09-01T13:07:48.855Z,25.40
2022-09-01T13:10:17.420Z,25.50
2022-09-01T13:12:46.448Z,25.30
2022-09-01T13:17:49.223Z,25.10
2022-09-01T13:20:17.348Z,25.20
2022-09-01T13:22:45.669Z,25.30
2022-09-01T13:25:15.342Z,25.30
2022-09-01T13:27:44.422Z,25.30
2022-09-01T13:30:15.371Z,25.40
2022-09-01T13:35:34.216Z,25.40
2022-09-01T13:38:02.583Z,25.30
2022-09-01T13:40:31.062Z,25.30
2022-09-01T13:42:59.258Z,25.10
2022-09-01T13:45:28.669Z,25.10
2022-09-01T13:53:37.835Z,25.40
2022-09-01T13:56:06.453Z,25.40
2022-09-01T13:58:34.519Z,25.40
2022-09-01T14:01:02.771Z,25.40
2022-09-01T14:03:32.294Z,25.40
2022-09-01T14:06:02.022Z,25.40
2022-09-01T14:08:30.971Z,25.40
2022-09-01T14:10:59.072Z,25.50
2022-09-01T14:13:28.019Z,25.40
2022-09-01T14:15:56.673Z,25.40
2022-09-01T14:18:24.810Z,27.20
2022-09-01T14:20:54.627Z,25.30
2022-09-01T14:23:24.123Z,25.40
2022-09-01T14:25:53.017Z,25.40
2022-09-01T14:28:23.195Z,25.30
2022-09-01T14:33:24.205Z,25.40
2022-09-01T14:35:52.468Z,25.40
2022-09-01T14:38:21.051Z,25.30
2022-09-01T14:40:52.065Z,25.10
2022-09-01T14:43:20.291Z,25.10
2022-09-01T14:45:48.775Z,25.00
2022-09-01T14:48:18.034Z,25.10
2022-09-01T14:50:51.044Z,25.00
2022-09-01T14:53:19.953Z,25.20
2022-09-01T14:55:49.718Z,25.10
2022-09-01T14:58:22.282Z,24.90
2022-09-01T15:00:50.464Z,24.90
2022-09-01T15:03:22.533Z,24.90
2022-09-01T15:05:51.329Z,24.90
2022-09-01T15:08:19.975Z,25.10
2022-09-01T15:10:48.790Z,25.10
2022-09-01T15:13:17.014Z,25.20
2022-09-01T15:15:46.506Z,25.20
2022-09-01T15:18:14.726Z,25.30
2022-09-01T15:20:46.563Z,25.10
2022-09-01T15:23:16.637Z,25.10
2022-09-01T15:25:44.829Z,25.10
2022-09-01T15:28:13.097Z,24.90
2022-09-01T15:30:42.097Z,24.90
2022-09-01T15:33:15.992Z,24.90
2022-09-01T15:35:44.979Z,24.90
2022-09-01T15:38:17.057Z,24.50
2022-09-01T15:40:58.328Z,25.00
2022-09-01T15:43:28.054Z,25.00
2022-09-01T15:45:58.194Z,24.90
2022-09-01T15:48:28.827Z,24.90
2022-09-01T15:51:22.215Z,25.00
2022-09-01T15:53:50.342Z,25.10
2022-09-01T15:56:18.936Z,25.20
2022-09-01T15:59:00.850Z,25.30
2022-09-01T16:01:31.893Z,25.30
2022-09-01T16:04:02.289Z,25.30
2022-09-01T16:06:30.474Z,24.90
2022-09-01T16:08:58.639Z,24.70
2022-09-01T16:11:27.657Z,24.40
2022-09-01T16:13:56.341Z,24.40
2022-09-01T16:16:40.933Z,24.40
2022-09-01T16:19:22.581Z,24.20
2022-09-01T16:22:00.607Z,24.10
2022-09-01T16:24:28.937Z,24.10
2022-09-01T16:26:57.966Z,24.10
2022-09-01T16:29:35.819Z,24.10
2022-09-01T16:32:04.222Z,24.00
2022-09-01T16:34:34.782Z,24.00
2022-09-01T16:37:09.088Z,24.00
2022-09-01T16:39:47.063Z,23.90
2022-09-01T16:42:27.970Z,23.80
2022-09-01T16:45:05.899Z,23.80
2022-09-01T16:47:55.652Z,23.70
2022-09-01T16:50:35.940Z,23.70
2022-09-01T16:53:15.466Z,23.70
2022-09-01T16:56:02.059Z,23.60
2022-09-01T16:58:51.041Z,23.50
2022-09-01T17:01:32.637Z,23.50
2022-09-01T17:04:15.627Z,23.60
2022-09-01T17:06:54.349Z,23.50
2022-09-01T17:09:29.351Z,23.40
2022-09-01T17:12:11.973Z,23.30
2022-09-01T17:14:47.598Z,23.20
2022-09-01T17:17:20.753Z,23.20
2022-09-01T17:19:52.626Z,23.20
2022-09-01T17:22:23.136Z,23.20
2022-09-01T17:24:57.812Z,23.10
2022-09-01T17:27:32.041Z,23.20
2022-09-01T17:30:01.000Z,23.10
2022-09-01T17:32:48.304Z,23.20
2022-09-01T17:35:24.484Z,23.20
2022-09-01T17:38:09.058Z,23.10
2022-09-01T17:40:56.713Z,23.10
2022-09-01T17:43:30.514Z,23.00
2022-09-01T17:46:08.640Z,22.90
2022-09-01T17:48:44.568Z,22.70
2022-09-01T17:51:23.461Z,22.70
2022-09-01T17:54:02.661Z,22.60
2022-09-01T17:56:41.771Z,22.50
2022-09-01T17:59:16.331Z,22.60
2022-09-01T18:01:54.153Z,22.30
2022-09-01T18:04:53.422Z,22.20
2022-09-01T18:07:52.619Z,22.10
2022-09-01T18:10:28.705Z,22.00
2022-09-01T18:13:02.178Z,21.90
2022-09-01T18:15:41.960Z,21.30
2022-09-01T18:18:28.247Z,21.70
2022-09-01T18:21:03.460Z,21.60
2022-09-01T18:23:36.386Z,21.60
2022-09-01T18:26:15.900Z,21.40
2022-09-01T18:28:44.358Z,21.40
2022-09-01T18:31:34.782Z,21.20
2022-09-01T18:34:09.927Z,21.20
2022-09-01T18:36:47.115Z,21.10
2022-09-01T18:39:21.775Z,21.00
2022-09-01T18:42:06.947Z,20.80
2022-09-01T18:44:49.165Z,20.80
2022-09-01T18:47:18.624Z,21.20
2022-09-01T18:49:55.117Z,20.60
2022-09-01T18:52:53.923Z,20.60
2022-09-01T18:55:28.595Z,20.20
2022-09-01T18:58:01.939Z,20.10
2022-09-01T19:00:36.154Z,20.30
2022-09-01T19:03:12.303Z,20.30
2022-09-01T19:06:07.126Z,20.40
2022-09-01T19:08:46.108Z,20.20
2022-09-01T19:11:24.625Z,20.20
2022-09-01T19:14:04.796Z,20.10
2022-09-01T19:16:46.467Z,20.10
2022-09-01T19:19:24.359Z,19.90
2022-09-01T19:21:55.846Z,19.80
2022-09-01T19:24:30.528Z,19.70
2022-09-01T19:27:02.082Z,18.70
2022-09-01T19:29:38.664Z,19.50
2022-09-01T19:32:09.997Z,19.80
2022-09-01T19:34:40.777Z,18.90
2022-09-01T19:37:09.831Z,18.70
2022-09-01T19:39:40.984Z,19.10
2022-09-01T19:42:15.164Z,19.50
2022-09-01T19:44:55.420Z,18.80
2022-09-01T19:47:32.977Z,18.90
2022-09-01T19:50:09.096Z,18.60
2022-09-01T19:52:42.173Z,18.60
2022-09-01T19:55:15.111Z,18.40
2022-09-01T19:57:47.613Z,18.50
2022-09-01T20:00:20.668Z,18.60
2022-09-01T20:02:54.268Z,18.80
2022-09-01T20:05:31.345Z,18.50
2022-09-01T20:08:03.607Z,18.30
2022-09-01T20:10:56.603Z,18.30
2022-09-01T20:13:43.781Z,18.30
2022-09-01T20:16:24.853Z,18.10
2022-09-01T20:18:59.394Z,18.50
2022-09-01T20:24:01.028Z,17.60
2022-09-01T20:26:32.848Z,18.50
2022-09-01T20:29:07.137Z,17.70
2022-09-01T20:31:40.283Z,17.60
2022-09-01T20:34:15.254Z,17.50
2022-09-01T20:36:49.782Z,17.60
2022-09-01T20:39:39.815Z,17.20
2022-09-01T20:42:15.374Z,17.50
2022-09-01T20:44:50.928Z,17.50
2022-09-01T20:47:28.357Z,17.20
2022-09-01T20:49:58.997Z,17.40
2022-09-01T20:52:35.104Z,17.50
2022-09-01T20:55:17.150Z,17.20
2022-09-01T20:57:52.999Z,17.20
2022-09-01T21:00:25.749Z,16.90
2022-09-01T21:03:03.274Z,17.40
2022-09-01T21:05:41.667Z,17.20
2022-09-01T21:08:24.878Z,17.40
2022-09-01T21:10:58.857Z,17.40
2022-09-01T21:13:47.801Z,17.20
2022-09-01T21:16:31.708Z,16.80
2022-09-01T21:19:07.737Z,17.20
2022-09-01T21:21:44.817Z,16.90
2022-09-01T21:29:31.228Z,16.90
2022-09-01T21:31:59.614Z,17.10
2022-09-01T21:34:29.055Z,17.40
2022-09-01T21:36:57.131Z,17.10
2022-09-01T21:39:25.204Z,17.00
2022-09-01T21:41:53.388Z,17.10
2022-09-01T21:44:22.307Z,16.50
2022-09-01T21:46:50.699Z,14.20
2022-09-01T21:49:18.909Z,17.20
2022-09-01T21:51:48.617Z,16.80
2022-09-01T22:01:45.593Z,16.50
2022-09-01T22:04:13.732Z,16.40
2022-09-01T22:06:42.485Z,16.90
2022-09-01T22:09:20.653Z,16.70
2022-09-01T22:14:18.504Z,16.40
2022-09-01T22:19:15.520Z,15.70
2022-09-01T22:21:43.861Z,16.50
2022-09-01T22:24:13.355Z,16.40
2022-09-01T22:26:48.203Z,16.90
2022-09-01T22:29:17.546Z,16.60
2022-09-01T22:31:46.085Z,16.20
2022-09-01T22:34:14.377Z,16.60
2022-09-01T22:36:45.684Z,15.50
2022-09-01T22:39:16.880Z,16.20
2022-09-01T22:44:13.436Z,16.70
2022-09-01T22:46:41.855Z,16.10
2022-09-01T22:49:10.512Z,16.10
2022-09-01T22:51:40.129Z,15.80
2022-09-01T22:54:10.302Z,15.40
2022-09-01T22:56:41.816Z,16.20
2022-09-01T22:59:13.199Z,16.30
2022-09-01T23:01:45.044Z,15.60
2022-09-01T23:04:14.531Z,15.70
2022-09-01T23:06:45.338Z,15.70
2022-09-01T23:09:13.493Z,15.40
2022-09-01T23:11:43.974Z,15.60
2022-09-01T23:14:12.147Z,15.70
2022-09-01T23:16:40.436Z,15.50
2022-09-01T23:19:09.092Z,15.60
2022-09-01T23:21:38.668Z,15.60
2022-09-01T23:24:07.898Z,15.50
2022-09-01T23:26:36.435Z,15.30
2022-09-01T23:29:06.403Z,15.60
2022-09-01T23:31:37.001Z,15.40
2022-09-01T23:36:34.512Z,15.20
2022-09-01T23:39:02.865Z,15.60
2022-09-01T23:41:33.337Z,15.20
2022-09-01T23:44:03.852Z,15.60
2022-09-01T23:46:36.913Z,15.30
2022-09-01T23:49:06.206Z,13.30
2022-09-01T23:56:31.632Z,15.40
2022-09-01T23:59:00.855Z,14.60
